sensor_id;sensor_type;location;lat;lon;timestamp;pressure;altitude;pressure_sealevel;temperature;humidity
6090;BME280;3073;42.660;23.316;2023-04-29T00:02:02;94553.41;;;19.97;36.74
6090;BME280;3073;42.660;23.316;2023-04-29T00:04:29;94548.09;;;19.39;37.59
6090;BME280;3073;42.660;23.316;2023-04-29T00:06:56;94550.41;;;19.27;37.10
6090;BME280;3073;42.660;23.316;2023-04-29T00:09:23;94552.03;;;19.37;36.79
6090;BME280;3073;42.660;23.316;2023-04-29T00:11:51;94557.81;;;19.61;36.48
6090;BME280;3073;42.660;23.316;2023-04-29T00:14:18;94552.91;;;19.19;37.19
6090;BME280;3073;42.660;23.316;2023-04-29T00:16:45;94567.16;;;19.02;36.89
6090;BME280;3073;42.660;23.316;2023-04-29T00:19:12;94566.09;;;18.90;36.27
6090;BME280;3073;42.660;23.316;2023-04-29T00:21:39;94568.16;;;18.10;37.36
6090;BME280;3073;42.660;23.316;2023-04-29T00:24:06;94556.53;;;18.26;37.58
6090;BME280;3073;42.660;23.316;2023-04-29T00:26:32;94561.94;;;17.31;38.98
6090;BME280;3073;42.660;23.316;2023-04-29T00:29:01;94561.25;;;17.44;39.09
6090;BME280;3073;42.660;23.316;2023-04-29T00:31:27;94568.41;;;18.27;38.16
6090;BME280;3073;42.660;23.316;2023-04-29T00:33:56;94565.25;;;18.30;38.07
6090;BME280;3073;42.660;23.316;2023-04-29T00:36:24;94571.03;;;18.40;37.68
6090;BME280;3073;42.660;23.316;2023-04-29T00:38:50;94559.53;;;17.58;39.50
6090;BME280;3073;42.660;23.316;2023-04-29T00:41:17;94557.16;;;16.33;41.47
6090;BME280;3073;42.660;23.316;2023-04-29T00:43:44;94560.53;;;16.33;41.75
6090;BME280;3073;42.660;23.316;2023-04-29T00:46:12;94558.50;;;16.64;41.35
6090;BME280;3073;42.660;23.316;2023-04-29T00:48:39;94555.09;;;17.64;39.34
6090;BME280;3073;42.660;23.316;2023-04-29T00:51:07;94554.03;;;18.21;38.68
6090;BME280;3073;42.660;23.316;2023-04-29T00:53:34;94555.34;;;18.18;38.40
6090;BME280;3073;42.660;23.316;2023-04-29T00:56:01;94546.88;;;18.50;37.73
6090;BME280;3073;42.660;23.316;2023-04-29T00:58:29;94544.91;;;18.61;37.92
6090;BME280;3073;42.660;23.316;2023-04-29T01:00:58;94537.53;;;18.54;37.74
6090;BME280;3073;42.660;23.316;2023-04-29T01:03:27;94535.28;;;17.96;38.52
6090;BME280;3073;42.660;23.316;2023-04-29T01:06:01;94534.47;;;18.33;38.19
6090;BME280;3073;42.660;23.316;2023-04-29T01:08:38;94528.88;;;17.75;39.00
6090;BME280;3073;42.660;23.316;2023-04-29T01:11:10;94524.84;;;17.88;38.87
6090;BME280;3073;42.660;23.316;2023-04-29T01:13:42;94515.75;;;17.11;39.79
6090;BME280;3073;42.660;23.316;2023-04-29T01:16:12;94521.81;;;18.32;38.37
6090;BME280;3073;42.660;23.316;2023-04-29T01:18:47;94523.53;;;18.55;37.40
6090;BME280;3073;42.660;23.316;2023-04-29T01:21:16;94520.75;;;18.51;37.71
6090;BME280;3073;42.660;23.316;2023-04-29T01:23:44;94522.50;;;18.70;37.23
6090;BME280;3073;42.660;23.316;2023-04-29T01:26:12;94519.81;;;18.29;38.02
6090;BME280;3073;42.660;23.316;2023-04-29T01:28:45;94517.78;;;18.58;37.82
6090;BME280;3073;42.660;23.316;2023-04-29T01:31:18;94513.63;;;18.89;37.28
6090;BME280;3073;42.660;23.316;2023-04-29T01:33:57;94522.50;;;18.70;37.71
6090;BME280;3073;42.660;23.316;2023-04-29T01:36:32;94516.00;;;18.86;37.34
6090;BME280;3073;42.660;23.316;2023-04-29T01:39:08;94519.91;;;18.56;37.77
6090;BME280;3073;42.660;23.316;2023-04-29T01:41:42;94525.88;;;18.70;37.85
6090;BME280;3073;42.660;23.316;2023-04-29T01:44:14;94523.09;;;18.34;38.05
6090;BME280;3073;42.660;23.316;2023-04-29T01:46:42;94516.03;;;17.70;38.89
6090;BME280;3073;42.660;23.316;2023-04-29T01:49:09;94521.94;;;17.52;39.11
6090;BME280;3073;42.660;23.316;2023-04-29T01:51:36;94508.47;;;16.94;40.19
6090;BME280;3073;42.660;23.316;2023-04-29T01:54:04;94512.84;;;17.17;39.82
6090;BME280;3073;42.660;23.316;2023-04-29T01:56:31;94510.59;;;17.11;39.66
6090;BME280;3073;42.660;23.316;2023-04-29T01:58:58;94511.31;;;17.35;39.53
6090;BME280;3073;42.660;23.316;2023-04-29T02:01:25;94518.78;;;16.65;40.46
6090;BME280;3073;42.660;23.316;2023-04-29T02:03:52;94515.50;;;16.60;40.68
6090;BME280;3073;42.660;23.316;2023-04-29T02:06:18;94517.44;;;17.39;39.53
6090;BME280;3073;42.660;23.316;2023-04-29T02:08:45;94522.47;;;17.49;39.36
6090;BME280;3073;42.660;23.316;2023-04-29T02:11:14;94516.28;;;17.50;39.39
6090;BME280;3073;42.660;23.316;2023-04-29T02:13:41;94523.00;;;17.51;38.89
6090;BME280;3073;42.660;23.316;2023-04-29T02:16:08;94519.56;;;17.37;39.23
6090;BME280;3073;42.660;23.316;2023-04-29T02:18:35;94528.44;;;17.68;38.90
6090;BME280;3073;42.660;23.316;2023-04-29T02:21:02;94517.09;;;17.88;38.65
6090;BME280;3073;42.660;23.316;2023-04-29T02:23:29;94521.97;;;17.71;38.84
6090;BME280;3073;42.660;23.316;2023-04-29T02:25:56;94517.06;;;16.84;40.59
6090;BME280;3073;42.660;23.316;2023-04-29T02:28:24;94518.34;;;17.29;39.61
6090;BME280;3073;42.660;23.316;2023-04-29T02:30:51;94519.13;;;16.82;40.39
6090;BME280;3073;42.660;23.316;2023-04-29T02:33:19;94517.81;;;16.85;40.59
6090;BME280;3073;42.660;23.316;2023-04-29T02:35:46;94512.97;;;17.26;40.04
6090;BME280;3073;42.660;23.316;2023-04-29T02:38:12;94522.16;;;17.56;39.66
6090;BME280;3073;42.660;23.316;2023-04-29T02:40:43;94513.63;;;17.55;39.65
6090;BME280;3073;42.660;23.316;2023-04-29T02:43:10;94522.13;;;17.61;39.51
6090;BME280;3073;42.660;23.316;2023-04-29T02:45:38;94512.34;;;17.76;39.24
6090;BME280;3073;42.660;23.316;2023-04-29T02:48:06;94517.59;;;17.71;39.29
6090;BME280;3073;42.660;23.316;2023-04-29T02:50:32;94519.84;;;17.54;39.74
6090;BME280;3073;42.660;23.316;2023-04-29T02:53:00;94521.38;;;17.55;39.83
6090;BME280;3073;42.660;23.316;2023-04-29T02:55:26;94528.94;;;17.70;39.57
6090;BME280;3073;42.660;23.316;2023-04-29T02:57:53;94524.50;;;17.33;40.15
6090;BME280;3073;42.660;23.316;2023-04-29T03:00:20;94533.81;;;16.82;41.15
6090;BME280;3073;42.660;23.316;2023-04-29T03:02:49;94545.19;;;17.05;40.73
6090;BME280;3073;42.660;23.316;2023-04-29T03:05:16;94545.22;;;16.13;41.85
6090;BME280;3073;42.660;23.316;2023-04-29T03:07:43;94542.56;;;17.10;40.75
6090;BME280;3073;42.660;23.316;2023-04-29T03:10:10;94537.66;;;17.08;40.72
6090;BME280;3073;42.660;23.316;2023-04-29T03:12:37;94539.19;;;17.33;40.27
6090;BME280;3073;42.660;23.316;2023-04-29T03:15:06;94529.47;;;17.25;40.54
6090;BME280;3073;42.660;23.316;2023-04-29T03:17:34;94536.97;;;17.26;40.57
6090;BME280;3073;42.660;23.316;2023-04-29T03:20:03;94537.53;;;17.42;40.35
6090;BME280;3073;42.660;23.316;2023-04-29T03:22:30;94532.53;;;17.50;40.11
6090;BME280;3073;42.660;23.316;2023-04-29T03:24:57;94541.91;;;17.65;40.17
6090;BME280;3073;42.660;23.316;2023-04-29T03:27:24;94551.38;;;17.51;40.02
6090;BME280;3073;42.660;23.316;2023-04-29T03:29:51;94557.56;;;17.74;39.95
6090;BME280;3073;42.660;23.316;2023-04-29T03:32:18;94564.03;;;17.90;39.62
6090;BME280;3073;42.660;23.316;2023-04-29T03:34:45;94565.84;;;18.08;39.43
6090;BME280;3073;42.660;23.316;2023-04-29T03:37:13;94562.78;;;17.87;39.76
6090;BME280;3073;42.660;23.316;2023-04-29T03:39:40;94571.00;;;17.71;39.96
6090;BME280;3073;42.660;23.316;2023-04-29T03:42:07;94565.88;;;16.99;40.86
6090;BME280;3073;42.660;23.316;2023-04-29T03:44:34;94571.25;;;17.27;40.53
6090;BME280;3073;42.660;23.316;2023-04-29T03:47:01;94573.53;;;16.13;42.34
6090;BME280;3073;42.660;23.316;2023-04-29T03:49:28;94569.59;;;16.60;41.42
6090;BME280;3073;42.660;23.316;2023-04-29T03:51:55;94565.22;;;16.60;41.81
6090;BME280;3073;42.660;23.316;2023-04-29T03:54:23;94562.06;;;16.92;41.24
6090;BME280;3073;42.660;23.316;2023-04-29T03:56:50;94559.50;;;17.16;41.11
6090;BME280;3073;42.660;23.316;2023-04-29T03:59:17;94555.03;;;17.45;40.60
6090;BME280;3073;42.660;23.316;2023-04-29T04:01:44;94561.41;;;17.29;41.15
6090;BME280;3073;42.660;23.316;2023-04-29T04:04:11;94563.28;;;17.71;40.42
6090;BME280;3073;42.660;23.316;2023-04-29T04:06:37;94558.88;;;17.47;40.95
6090;BME280;3073;42.660;23.316;2023-04-29T04:09:04;94561.31;;;17.63;40.77
6090;BME280;3073;42.660;23.316;2023-04-29T04:11:33;94565.22;;;17.60;40.90
6090;BME280;3073;42.660;23.316;2023-04-29T04:14:04;94574.19;;;17.81;40.42
6090;BME280;3073;42.660;23.316;2023-04-29T04:16:31;94563.84;;;18.37;39.50
6090;BME280;3073;42.660;23.316;2023-04-29T04:18:58;94569.97;;;18.41;39.46
6090;BME280;3073;42.660;23.316;2023-04-29T04:21:25;94568.94;;;18.61;39.21
6090;BME280;3073;42.660;23.316;2023-04-29T04:23:53;94570.28;;;18.72;39.56
6090;BME280;3073;42.660;23.316;2023-04-29T04:26:20;94570.66;;;18.66;39.48
6090;BME280;3073;42.660;23.316;2023-04-29T04:28:48;94567.66;;;18.91;38.86
6090;BME280;3073;42.660;23.316;2023-04-29T04:31:15;94566.38;;;18.88;38.74
6090;BME280;3073;42.660;23.316;2023-04-29T04:33:42;94561.69;;;18.77;39.09
6090;BME280;3073;42.660;23.316;2023-04-29T04:36:09;94561.34;;;19.24;38.81
6090;BME280;3073;42.660;23.316;2023-04-29T04:38:36;94565.84;;;19.32;38.30
6090;BME280;3073;42.660;23.316;2023-04-29T04:41:05;94578.19;;;18.30;39.55
6090;BME280;3073;42.660;23.316;2023-04-29T04:43:32;94574.06;;;17.07;41.45
6090;BME280;3073;42.660;23.316;2023-04-29T04:46:08;94569.00;;;17.44;40.75
6090;BME280;3073;42.660;23.316;2023-04-29T04:48:35;94573.22;;;17.35;41.03
6090;BME280;3073;42.660;23.316;2023-04-29T04:51:06;94579.59;;;18.04;39.99
6090;BME280;3073;42.660;23.316;2023-04-29T04:53:33;94587.03;;;18.61;39.28
6090;BME280;3073;42.660;23.316;2023-04-29T04:56:00;94577.59;;;18.33;39.74
6090;BME280;3073;42.660;23.316;2023-04-29T04:58:27;94578.59;;;18.37;39.76
6090;BME280;3073;42.660;23.316;2023-04-29T05:00:55;94568.19;;;18.74;39.07
6090;BME280;3073;42.660;23.316;2023-04-29T05:03:24;94560.63;;;18.91;39.01
6090;BME280;3073;42.660;23.316;2023-04-29T05:05:52;94556.84;;;18.06;39.87
6090;BME280;3073;42.660;23.316;2023-04-29T05:08:19;94556.13;;;18.70;39.20
6090;BME280;3073;42.660;23.316;2023-04-29T05:10:46;94553.03;;;19.41;38.51
6090;BME280;3073;42.660;23.316;2023-04-29T05:13:13;94551.16;;;19.69;38.21
6090;BME280;3073;42.660;23.316;2023-04-29T05:15:40;94549.44;;;19.37;37.78
6090;BME280;3073;42.660;23.316;2023-04-29T05:18:08;94542.94;;;20.47;36.52
6090;BME280;3073;42.660;23.316;2023-04-29T05:20:45;94543.28;;;20.54;36.76
6090;BME280;3073;42.660;23.316;2023-04-29T05:23:12;94530.16;;;20.50;36.46
6090;BME280;3073;42.660;23.316;2023-04-29T05:25:39;94532.19;;;20.62;36.78
6090;BME280;3073;42.660;23.316;2023-04-29T05:28:06;94537.63;;;20.83;36.14
6090;BME280;3073;42.660;23.316;2023-04-29T05:30:34;94535.41;;;20.98;35.86
6090;BME280;3073;42.660;23.316;2023-04-29T05:33:02;94529.50;;;20.45;36.16
6090;BME280;3073;42.660;23.316;2023-04-29T05:35:29;94536.19;;;20.37;36.21
6090;BME280;3073;42.660;23.316;2023-04-29T05:37:58;94529.75;;;20.57;36.07
6090;BME280;3073;42.660;23.316;2023-04-29T05:40:25;94536.78;;;20.65;36.17
6090;BME280;3073;42.660;23.316;2023-04-29T05:42:52;94525.97;;;20.72;36.66
6090;BME280;3073;42.660;23.316;2023-04-29T05:45:19;94519.00;;;21.12;35.89
6090;BME280;3073;42.660;23.316;2023-04-29T05:47:46;94524.44;;;21.49;34.84
6090;BME280;3073;42.660;23.316;2023-04-29T05:50:13;94535.38;;;21.94;34.68
6090;BME280;3073;42.660;23.316;2023-04-29T05:52:39;94536.97;;;21.47;34.70
6090;BME280;3073;42.660;23.316;2023-04-29T05:55:08;94541.94;;;21.92;34.35
6090;BME280;3073;42.660;23.316;2023-04-29T05:57:35;94545.00;;;21.20;34.48
6090;BME280;3073;42.660;23.316;2023-04-29T06:00:03;94541.63;;;21.93;34.38
6090;BME280;3073;42.660;23.316;2023-04-29T06:02:31;94539.00;;;22.45;33.48
6090;BME280;3073;42.660;23.316;2023-04-29T06:05:00;94536.91;;;23.61;31.46
6090;BME280;3073;42.660;23.316;2023-04-29T06:07:28;94545.28;;;24.49;30.76
6090;BME280;3073;42.660;23.316;2023-04-29T06:09:55;94536.72;;;25.42;29.80
6090;BME280;3073;42.660;23.316;2023-04-29T06:12:23;94538.88;;;25.88;29.03
6090;BME280;3073;42.660;23.316;2023-04-29T06:14:50;94539.19;;;26.27;28.55
6090;BME280;3073;42.660;23.316;2023-04-29T06:17:17;94530.44;;;26.78;28.04
6090;BME280;3073;42.660;23.316;2023-04-29T06:19:44;94535.50;;;25.88;29.11
6090;BME280;3073;42.660;23.316;2023-04-29T06:22:11;94531.72;;;25.61;28.76
6090;BME280;3073;42.660;23.316;2023-04-29T06:24:38;94533.09;;;26.94;28.16
6090;BME280;3073;42.660;23.316;2023-04-29T06:27:05;94534.78;;;25.15;28.86
6090;BME280;3073;42.660;23.316;2023-04-29T06:29:34;94541.16;;;26.73;27.70
6090;BME280;3073;42.660;23.316;2023-04-29T06:32:00;94544.25;;;26.07;28.21
6090;BME280;3073;42.660;23.316;2023-04-29T06:34:28;94531.22;;;27.10;28.12
6090;BME280;3073;42.660;23.316;2023-04-29T06:36:55;94535.09;;;27.82;27.34
6090;BME280;3073;42.660;23.316;2023-04-29T06:39:22;94541.44;;;28.35;27.04
6090;BME280;3073;42.660;23.316;2023-04-29T06:41:49;94542.22;;;28.01;27.19
6090;BME280;3073;42.660;23.316;2023-04-29T06:44:16;94541.69;;;27.10;28.17
6090;BME280;3073;42.660;23.316;2023-04-29T06:46:45;94530.22;;;28.19;27.37
6090;BME280;3073;42.660;23.316;2023-04-29T06:49:11;94530.56;;;28.98;26.22
6090;BME280;3073;42.660;23.316;2023-04-29T06:51:38;94538.97;;;28.84;26.54
6090;BME280;3073;42.660;23.316;2023-04-29T06:54:07;94535.09;;;28.78;26.39
6090;BME280;3073;42.660;23.316;2023-04-29T06:56:34;94526.56;;;29.56;26.04
6090;BME280;3073;42.660;23.316;2023-04-29T06:59:01;94533.13;;;30.26;25.32
6090;BME280;3073;42.660;23.316;2023-04-29T07:01:28;94539.28;;;30.74;24.82
6090;BME280;3073;42.660;23.316;2023-04-29T07:03:57;94534.34;;;28.78;25.94
6090;BME280;3073;42.660;23.316;2023-04-29T07:06:24;94530.44;;;29.92;25.08
6090;BME280;3073;42.660;23.316;2023-04-29T07:08:51;94529.03;;;29.46;25.65
6090;BME280;3073;42.660;23.316;2023-04-29T07:11:18;94521.94;;;27.63;26.70
6090;BME280;3073;42.660;23.316;2023-04-29T07:13:44;94523.59;;;28.06;27.05
6090;BME280;3073;42.660;23.316;2023-04-29T07:16:15;94516.72;;;28.59;25.85
6090;BME280;3073;42.660;23.316;2023-04-29T07:18:42;94515.66;;;25.87;28.19
6090;BME280;3073;42.660;23.316;2023-04-29T07:21:10;94521.31;;;25.89;28.07
6090;BME280;3073;42.660;23.316;2023-04-29T07:23:37;94523.59;;;26.30;28.25
6090;BME280;3073;42.660;23.316;2023-04-29T07:26:09;94521.25;;;25.49;28.60
6090;BME280;3073;42.660;23.316;2023-04-29T07:28:36;94525.84;;;25.40;28.67
6090;BME280;3073;42.660;23.316;2023-04-29T07:31:04;94519.13;;;25.91;28.58
6090;BME280;3073;42.660;23.316;2023-04-29T07:33:32;94522.00;;;28.01;26.80
6090;BME280;3073;42.660;23.316;2023-04-29T07:35:59;94523.16;;;27.50;27.39
6090;BME280;3073;42.660;23.316;2023-04-29T07:38:27;94519.75;;;28.80;26.38
6090;BME280;3073;42.660;23.316;2023-04-29T07:40:55;94522.34;;;29.26;25.92
6090;BME280;3073;42.660;23.316;2023-04-29T07:43:22;94524.34;;;29.32;26.35
6090;BME280;3073;42.660;23.316;2023-04-29T07:45:48;94522.50;;;29.62;25.09
6090;BME280;3073;42.660;23.316;2023-04-29T07:48:15;94526.19;;;30.14;25.44
6090;BME280;3073;42.660;23.316;2023-04-29T07:50:42;94511.94;;;30.15;24.66
6090;BME280;3073;42.660;23.316;2023-04-29T07:53:09;94516.06;;;30.49;24.64
6090;BME280;3073;42.660;23.316;2023-04-29T07:55:39;94518.38;;;31.39;23.55
6090;BME280;3073;42.660;23.316;2023-04-29T07:58:06;94506.03;;;32.26;23.43
6090;BME280;3073;42.660;23.316;2023-04-29T08:00:32;94514.06;;;33.07;22.35
6090;BME280;3073;42.660;23.316;2023-04-29T08:02:59;94503.84;;;32.63;22.53
6090;BME280;3073;42.660;23.316;2023-04-29T08:05:26;94504.44;;;30.50;24.07
6090;BME280;3073;42.660;23.316;2023-04-29T08:07:54;94494.97;;;29.27;24.66
6090;BME280;3073;42.660;23.316;2023-04-29T08:10:21;94498.88;;;31.03;23.69
6090;BME280;3073;42.660;23.316;2023-04-29T08:12:50;94499.66;;;29.96;24.38
6090;BME280;3073;42.660;23.316;2023-04-29T08:15:17;94498.50;;;30.27;23.79
6090;BME280;3073;42.660;23.316;2023-04-29T08:17:44;94501.50;;;30.59;23.79
6090;BME280;3073;42.660;23.316;2023-04-29T08:20:11;94501.84;;;31.49;22.90
6090;BME280;3073;42.660;23.316;2023-04-29T08:22:39;94490.59;;;32.56;22.42
6090;BME280;3073;42.660;23.316;2023-04-29T08:25:07;94496.66;;;32.60;22.26
6090;BME280;3073;42.660;23.316;2023-04-29T08:27:34;94494.06;;;31.12;22.93
6090;BME280;3073;42.660;23.316;2023-04-29T08:30:03;94481.50;;;30.18;23.40
6090;BME280;3073;42.660;23.316;2023-04-29T08:32:30;94484.53;;;28.62;25.14
6090;BME280;3073;42.660;23.316;2023-04-29T08:34:58;94486.78;;;29.32;24.38
6090;BME280;3073;42.660;23.316;2023-04-29T08:37:26;94492.88;;;30.62;23.57
6090;BME280;3073;42.660;23.316;2023-04-29T08:39:53;94485.66;;;30.99;22.96
6090;BME280;3073;42.660;23.316;2023-04-29T08:42:31;94485.16;;;32.03;23.05
6090;BME280;3073;42.660;23.316;2023-04-29T08:44:59;94482.25;;;31.50;22.67
6090;BME280;3073;42.660;23.316;2023-04-29T08:47:28;94483.97;;;30.77;22.82
6090;BME280;3073;42.660;23.316;2023-04-29T08:49:57;94478.34;;;31.98;22.31
6090;BME280;3073;42.660;23.316;2023-04-29T08:52:27;94470.94;;;32.50;22.24
6090;BME280;3073;42.660;23.316;2023-04-29T08:54:54;94468.59;;;33.83;21.28
6090;BME280;3073;42.660;23.316;2023-04-29T08:57:22;94466.03;;;34.52;20.85
6090;BME280;3073;42.660;23.316;2023-04-29T08:59:51;94475.69;;;34.80;19.74
6090;BME280;3073;42.660;23.316;2023-04-29T09:02:19;94471.19;;;34.00;20.51
6090;BME280;3073;42.660;23.316;2023-04-29T09:04:54;94467.72;;;34.18;21.25
6090;BME280;3073;42.660;23.316;2023-04-29T09:07:26;94465.66;;;32.50;21.53
6090;BME280;3073;42.660;23.316;2023-04-29T09:09:54;94461.56;;;33.23;20.71
6090;BME280;3073;42.660;23.316;2023-04-29T09:12:21;94467.50;;;33.73;20.94
6090;BME280;3073;42.660;23.316;2023-04-29T09:14:48;94458.34;;;34.02;20.46
6090;BME280;3073;42.660;23.316;2023-04-29T09:17:15;94461.47;;;34.56;20.30
6090;BME280;3073;42.660;23.316;2023-04-29T09:19:43;94456.38;;;34.17;20.42
6090;BME280;3073;42.660;23.316;2023-04-29T09:22:11;94459.19;;;33.75;21.18
6090;BME280;3073;42.660;23.316;2023-04-29T09:24:38;94458.59;;;34.33;21.08
6090;BME280;3073;42.660;23.316;2023-04-29T09:27:05;94462.75;;;34.27;20.62
6090;BME280;3073;42.660;23.316;2023-04-29T09:29:33;94444.66;;;34.07;20.67
6090;BME280;3073;42.660;23.316;2023-04-29T09:32:17;94447.50;;;33.72;20.60
6090;BME280;3073;42.660;23.316;2023-04-29T09:34:45;94439.25;;;33.28;21.18
6090;BME280;3073;42.660;23.316;2023-04-29T09:37:22;94439.84;;;33.88;21.05
6090;BME280;3073;42.660;23.316;2023-04-29T09:39:49;94437.53;;;33.97;20.35
6090;BME280;3073;42.660;23.316;2023-04-29T09:42:16;94435.91;;;32.88;21.54
6090;BME280;3073;42.660;23.316;2023-04-29T09:44:43;94432.09;;;32.89;20.88
6090;BME280;3073;42.660;23.316;2023-04-29T09:47:10;94440.78;;;30.45;22.37
6090;BME280;3073;42.660;23.316;2023-04-29T09:49:39;94429.44;;;30.85;22.15
6090;BME280;3073;42.660;23.316;2023-04-29T09:52:09;94420.19;;;30.17;22.64
6090;BME280;3073;42.660;23.316;2023-04-29T09:54:39;94423.16;;;31.58;21.85
6090;BME280;3073;42.660;23.316;2023-04-29T09:57:08;94420.91;;;31.63;21.90
6090;BME280;3073;42.660;23.316;2023-04-29T09:59:36;94415.88;;;33.19;21.53
6090;BME280;3073;42.660;23.316;2023-04-29T10:02:06;94417.06;;;34.05;20.34
6090;BME280;3073;42.660;23.316;2023-04-29T10:04:39;94415.38;;;35.32;19.76
6090;BME280;3073;42.660;23.316;2023-04-29T10:07:06;94407.34;;;36.30;19.35
6090;BME280;3073;42.660;23.316;2023-04-29T10:09:37;94399.19;;;36.67;18.79
6090;BME280;3073;42.660;23.316;2023-04-29T10:12:06;94401.88;;;34.71;20.22
6090;BME280;3073;42.660;23.316;2023-04-29T10:14:38;94393.84;;;34.27;18.85
6090;BME280;3073;42.660;23.316;2023-04-29T10:17:15;94390.06;;;34.83;19.53
6090;BME280;3073;42.660;23.316;2023-04-29T10:19:49;94383.41;;;32.62;20.09
6090;BME280;3073;42.660;23.316;2023-04-29T10:22:31;94382.19;;;33.20;20.04
6090;BME280;3073;42.660;23.316;2023-04-29T10:25:00;94386.94;;;33.74;19.49
6090;BME280;3073;42.660;23.316;2023-04-29T10:27:30;94388.31;;;34.03;19.33
6090;BME280;3073;42.660;23.316;2023-04-29T10:30:01;94383.16;;;34.92;19.36
6090;BME280;3073;42.660;23.316;2023-04-29T10:32:29;94382.25;;;32.56;20.06
6090;BME280;3073;42.660;23.316;2023-04-29T10:34:58;94381.06;;;31.14;21.40
6090;BME280;3073;42.660;23.316;2023-04-29T10:37:27;94382.28;;;32.70;21.10
6090;BME280;3073;42.660;23.316;2023-04-29T10:40:00;94378.09;;;32.97;20.53
6090;BME280;3073;42.660;23.316;2023-04-29T10:42:41;94383.66;;;33.49;20.30
6090;BME280;3073;42.660;23.316;2023-04-29T10:45:22;94374.66;;;33.07;20.92
6090;BME280;3073;42.660;23.316;2023-04-29T10:48:13;94379.59;;;32.21;21.40
6090;BME280;3073;42.660;23.316;2023-04-29T10:51:00;94380.72;;;32.94;20.97
6090;BME280;3073;42.660;23.316;2023-04-29T10:53:28;94376.63;;;32.64;20.90
6090;BME280;3073;42.660;23.316;2023-04-29T10:55:58;94367.53;;;32.12;21.36
6090;BME280;3073;42.660;23.316;2023-04-29T10:58:41;94381.31;;;31.60;21.83
6090;BME280;3073;42.660;23.316;2023-04-29T11:01:10;94374.31;;;31.20;22.69
6090;BME280;3073;42.660;23.316;2023-04-29T11:03:51;94369.44;;;29.83;23.30
6090;BME280;3073;42.660;23.316;2023-04-29T11:06:24;94375.16;;;30.29;22.61
6090;BME280;3073;42.660;23.316;2023-04-29T11:09:02;94374.03;;;29.90;21.79
6090;BME280;3073;42.660;23.316;2023-04-29T11:11:43;94366.78;;;31.15;21.14
6090;BME280;3073;42.660;23.316;2023-04-29T11:14:12;94369.81;;;31.24;21.55
6090;BME280;3073;42.660;23.316;2023-04-29T11:16:46;94368.75;;;31.36;21.45
6090;BME280;3073;42.660;23.316;2023-04-29T11:19:14;94367.06;;;29.11;21.87
6090;BME280;3073;42.660;23.316;2023-04-29T11:21:43;94367.47;;;30.10;20.87
6090;BME280;3073;42.660;23.316;2023-04-29T11:24:10;94366.88;;;28.97;22.29
6090;BME280;3073;42.660;23.316;2023-04-29T11:26:40;94369.47;;;29.24;22.57
6090;BME280;3073;42.660;23.316;2023-04-29T11:29:08;94363.31;;;27.73;23.21
6090;BME280;3073;42.660;23.316;2023-04-29T11:31:37;94364.66;;;29.59;22.02
6090;BME280;3073;42.660;23.316;2023-04-29T11:34:05;94366.13;;;29.90;22.35
6090;BME280;3073;42.660;23.316;2023-04-29T11:36:33;94362.22;;;28.87;22.08
6090;BME280;3073;42.660;23.316;2023-04-29T11:39:01;94358.44;;;28.85;21.85
6090;BME280;3073;42.660;23.316;2023-04-29T11:41:28;94355.63;;;28.71;22.40
6090;BME280;3073;42.660;23.316;2023-04-29T11:43:56;94355.75;;;27.48;22.88
6090;BME280;3073;42.660;23.316;2023-04-29T11:46:23;94352.31;;;27.09;23.64
6090;BME280;3073;42.660;23.316;2023-04-29T11:48:56;94355.34;;;29.32;22.29
6090;BME280;3073;42.660;23.316;2023-04-29T11:51:23;94352.81;;;27.73;23.01
6090;BME280;3073;42.660;23.316;2023-04-29T11:53:50;94361.66;;;29.01;22.53
6090;BME280;3073;42.660;23.316;2023-04-29T11:56:20;94355.38;;;27.88;23.36
6090;BME280;3073;42.660;23.316;2023-04-29T11:58:48;94355.25;;;26.89;23.58
6090;BME280;3073;42.660;23.316;2023-04-29T12:01:15;94358.50;;;26.20;24.74
6090;BME280;3073;42.660;23.316;2023-04-29T12:03:42;94348.28;;;27.12;24.44
6090;BME280;3073;42.660;23.316;2023-04-29T12:06:12;94344.94;;;27.92;24.02
6090;BME280;3073;42.660;23.316;2023-04-29T12:08:40;94346.16;;;28.43;24.13
6090;BME280;3073;42.660;23.316;2023-04-29T12:11:07;94348.09;;;28.46;24.64
6090;BME280;3073;42.660;23.316;2023-04-29T12:13:34;94358.00;;;29.09;23.92
6090;BME280;3073;42.660;23.316;2023-04-29T12:16:02;94344.19;;;27.91;24.23
6090;BME280;3073;42.660;23.316;2023-04-29T12:18:30;94340.16;;;27.97;25.21
6090;BME280;3073;42.660;23.316;2023-04-29T12:20:57;94348.31;;;28.60;25.42
6090;BME280;3073;42.660;23.316;2023-04-29T12:23:25;94341.34;;;28.98;25.44
6090;BME280;3073;42.660;23.316;2023-04-29T12:25:53;94333.72;;;29.45;24.60
6090;BME280;3073;42.660;23.316;2023-04-29T12:28:21;94336.13;;;29.28;23.93
6090;BME280;3073;42.660;23.316;2023-04-29T12:30:49;94336.66;;;27.32;25.54
6090;BME280;3073;42.660;23.316;2023-04-29T12:33:18;94331.50;;;28.39;24.97
6090;BME280;3073;42.660;23.316;2023-04-29T12:35:47;94328.59;;;28.47;25.23
6090;BME280;3073;42.660;23.316;2023-04-29T12:38:20;94336.50;;;29.63;24.47
6090;BME280;3073;42.660;23.316;2023-04-29T12:40:48;94338.13;;;28.55;24.96
6090;BME280;3073;42.660;23.316;2023-04-29T12:43:16;94328.72;;;26.90;27.15
6090;BME280;3073;42.660;23.316;2023-04-29T12:45:43;94323.06;;;26.73;27.46
6090;BME280;3073;42.660;23.316;2023-04-29T12:48:10;94324.41;;;27.36;26.80
6090;BME280;3073;42.660;23.316;2023-04-29T12:50:38;94324.88;;;27.23;26.81
6090;BME280;3073;42.660;23.316;2023-04-29T12:53:06;94323.16;;;28.10;26.17
6090;BME280;3073;42.660;23.316;2023-04-29T12:55:33;94320.91;;;28.84;25.37
6090;BME280;3073;42.660;23.316;2023-04-29T12:58:02;94321.22;;;29.76;24.85
6090;BME280;3073;42.660;23.316;2023-04-29T13:00:30;94321.06;;;28.46;25.33
6090;BME280;3073;42.660;23.316;2023-04-29T13:02:57;94310.47;;;27.93;26.11
6090;BME280;3073;42.660;23.316;2023-04-29T13:05:24;94318.47;;;26.03;27.80
6090;BME280;3073;42.660;23.316;2023-04-29T13:07:51;94318.66;;;25.51;28.65
6090;BME280;3073;42.660;23.316;2023-04-29T13:10:18;94315.81;;;26.66;27.44
6090;BME280;3073;42.660;23.316;2023-04-29T13:12:45;94313.47;;;28.15;27.00
6090;BME280;3073;42.660;23.316;2023-04-29T13:15:14;94321.06;;;25.44;28.24
6090;BME280;3073;42.660;23.316;2023-04-29T13:17:40;94324.72;;;26.15;28.07